sensor_id;sensor_type;location;lat;lon;timestamp;pressure;altitude;pressure_sealevel;temperature;humidity
43621;BME280;29213;50.770;7.298;2023-03-13T00:01:34;99911.34;;;8.03;57.07
43621;BME280;29213;50.770;7.298;2023-03-13T00:04:00;99945.75;;;8.29;57.07
43621;BME280;29213;50.770;7.298;2023-03-13T00:06:31;99841.75;;;7.76;56.99
43621;BME280;29213;50.770;7.298;2023-03-13T00:08:57;99938.09;;;8.26;57.41
43621;BME280;29213;50.770;7.298;2023-03-13T00:11:24;99927.81;;;8.23;57.27
43621;BME280;29213;50.770;7.298;2023-03-13T00:13:54;99921.34;;;8.34;56.98
43621;BME280;29213;50.770;7.298;2023-03-13T00:16:19;99875.22;;;8.02;57.18
43621;BME280;29213;50.770;7.298;2023-03-13T00:18:50;99920.19;;;8.37;57.12
43621;BME280;29213;50.770;7.298;2023-03-13T00:21:17;99908.59;;;8.38;57.18
43621;BME280;29213;50.770;7.298;2023-03-13T00:23:44;99906.09;;;8.36;57.40
43621;BME280;29213;50.770;7.298;2023-03-13T00:26:12;99883.06;;;8.20;57.71
43621;BME280;29213;50.770;7.298;2023-03-13T00:28:39;99898.47;;;8.33;57.40
43621;BME280;29213;50.770;7.298;2023-03-13T00:31:07;99881.91;;;8.39;57.47
43621;BME280;29213;50.770;7.298;2023-03-13T00:33:37;99883.53;;;8.40;57.00
43621;BME280;29213;50.770;7.298;2023-03-13T00:36:06;99873.41;;;8.44;56.93
43621;BME280;29213;50.770;7.298;2023-03-13T00:38:32;99773.97;;;7.82;57.17
43621;BME280;29213;50.770;7.298;2023-03-13T00:41:00;99858.19;;;8.46;56.68
43621;BME280;29213;50.770;7.298;2023-03-13T00:43:25;99834.31;;;8.29;56.57
43621;BME280;29213;50.770;7.298;2023-03-13T00:45:51;99807.63;;;8.23;56.45
43621;BME280;29213;50.770;7.298;2023-03-13T00:48:16;99766.53;;;8.10;56.85
43621;BME280;29213;50.770;7.298;2023-03-13T00:50:41;99726.06;;;8.00;56.86
43621;BME280;29213;50.770;7.298;2023-03-13T00:53:07;99813.84;;;8.63;56.78
43621;BME280;29213;50.770;7.298;2023-03-13T00:55:32;99763.50;;;8.38;56.80
43621;BME280;29213;50.770;7.298;2023-03-13T00:57:58;99777.56;;;8.47;57.41
43621;BME280;29213;50.770;7.298;2023-03-13T01:00:23;99782.34;;;8.60;57.60
43621;BME280;29213;50.770;7.298;2023-03-13T01:02:48;99703.03;;;8.09;57.73
43621;BME280;29213;50.770;7.298;2023-03-13T01:05:14;99760.28;;;8.51;57.83
43621;BME280;29213;50.770;7.298;2023-03-13T01:07:39;99738.94;;;8.36;58.38
43621;BME280;29213;50.770;7.298;2023-03-13T01:10:05;99752.19;;;8.45;58.76
43621;BME280;29213;50.770;7.298;2023-03-13T01:12:31;99748.38;;;8.39;58.91
43621;BME280;29213;50.770;7.298;2023-03-13T01:14:56;99745.91;;;8.37;59.19
43621;BME280;29213;50.770;7.298;2023-03-13T01:17:21;99760.47;;;8.50;59.16
43621;BME280;29213;50.770;7.298;2023-03-13T01:19:47;99723.22;;;8.26;59.34
43621;BME280;29213;50.770;7.298;2023-03-13T01:22:12;99739.63;;;8.30;59.51
43621;BME280;29213;50.770;7.298;2023-03-13T01:24:37;99720.91;;;8.23;59.87
43621;BME280;29213;50.770;7.298;2023-03-13T01:27:03;99712.44;;;8.20;60.28
43621;BME280;29213;50.770;7.298;2023-03-13T01:29:28;99726.41;;;8.22;60.27
43621;BME280;29213;50.770;7.298;2023-03-13T01:31:53;99734.66;;;8.27;60.89
43621;BME280;29213;50.770;7.298;2023-03-13T01:34:19;99724.75;;;8.21;61.13
43621;BME280;29213;50.770;7.298;2023-03-13T01:36:44;99692.25;;;8.02;60.92
43621;BME280;29213;50.770;7.298;2023-03-13T01:39:14;99725.19;;;8.33;61.15
43621;BME280;29213;50.770;7.298;2023-03-13T01:41:39;99628.03;;;7.67;60.96
43621;BME280;29213;50.770;7.298;2023-03-13T01:44:05;99695.25;;;8.07;61.34
43621;BME280;29213;50.770;7.298;2023-03-13T01:46:30;99689.59;;;8.02;61.46
43621;BME280;29213;50.770;7.298;2023-03-13T01:52:03;99717.44;;;8.14;62.62
43621;BME280;29213;50.770;7.298;2023-03-13T01:54:36;99706.22;;;8.04;63.51
43621;BME280;29213;50.770;7.298;2023-03-13T01:57:08;99640.63;;;7.56;63.10
43621;BME280;29213;50.770;7.298;2023-03-13T02:00:01;99650.22;;;7.66;63.02
43621;BME280;29213;50.770;7.298;2023-03-13T02:02:28;99642.94;;;7.68;63.48
43621;BME280;29213;50.770;7.298;2023-03-13T02:04:56;99668.75;;;7.82;63.32
43621;BME280;29213;50.770;7.298;2023-03-13T02:07:28;99661.13;;;7.87;63.49
43621;BME280;29213;50.770;7.298;2023-03-13T02:09:55;99646.56;;;7.83;63.68
43621;BME280;29213;50.770;7.298;2023-03-13T02:12:28;99654.50;;;7.83;63.86
43621;BME280;29213;50.770;7.298;2023-03-13T02:14:55;99600.38;;;7.61;63.58
43621;BME280;29213;50.770;7.298;2023-03-13T02:17:22;99655.16;;;7.85;64.82
43621;BME280;29213;50.770;7.298;2023-03-13T02:19:50;99607.84;;;7.57;64.29
43621;BME280;29213;50.770;7.298;2023-03-13T02:22:32;99598.56;;;7.61;64.17
43621;BME280;29213;50.770;7.298;2023-03-13T02:27:59;99593.06;;;7.71;63.98
43621;BME280;29213;50.770;7.298;2023-03-13T02:30:25;99593.06;;;7.71;63.79
43621;BME280;29213;50.770;7.298;2023-03-13T02:32:51;99606.94;;;7.90;63.79
43621;BME280;29213;50.770;7.298;2023-03-13T02:35:19;99617.50;;;7.98;64.18
43621;BME280;29213;50.770;7.298;2023-03-13T02:37:54;99565.44;;;7.66;64.49
43621;BME280;29213;50.770;7.298;2023-03-13T02:40:24;99574.41;;;7.40;66.95
43621;BME280;29213;50.770;7.298;2023-03-13T02:42:52;99584.16;;;7.39;66.56
43621;BME280;29213;50.770;7.298;2023-03-13T02:45:18;99616.09;;;7.62;66.27
43621;BME280;29213;50.770;7.298;2023-03-13T02:47:44;99576.72;;;7.51;65.91
43621;BME280;29213;50.770;7.298;2023-03-13T02:50:10;99608.63;;;7.74;66.00
43621;BME280;29213;50.770;7.298;2023-03-13T02:52:41;99573.38;;;7.57;67.93
43621;BME280;29213;50.770;7.298;2023-03-13T02:55:12;99529.72;;;7.36;67.95
43621;BME280;29213;50.770;7.298;2023-03-13T02:57:39;99594.38;;;7.67;67.83
43621;BME280;29213;50.770;7.298;2023-03-13T03:00:05;99578.34;;;7.60;67.87
43621;BME280;29213;50.770;7.298;2023-03-13T03:02:31;99558.16;;;7.59;67.83
43621;BME280;29213;50.770;7.298;2023-03-13T03:04:56;99564.59;;;7.65;67.99
43621;BME280;29213;50.770;7.298;2023-03-13T03:07:22;99538.97;;;7.49;70.13
43621;BME280;29213;50.770;7.298;2023-03-13T03:09:47;99561.63;;;7.60;70.38
43621;BME280;29213;50.770;7.298;2023-03-13T03:12:13;99567.59;;;7.62;69.97
43621;BME280;29213;50.770;7.298;2023-03-13T03:14:38;99536.81;;;7.44;71.14
43621;BME280;29213;50.770;7.298;2023-03-13T03:17:04;99509.53;;;7.27;71.19
43621;BME280;29213;50.770;7.298;2023-03-13T03:19:29;99515.13;;;7.41;70.70
43621;BME280;29213;50.770;7.298;2023-03-13T03:21:54;99460.06;;;7.11;70.93
43621;BME280;29213;50.770;7.298;2023-03-13T03:24:20;99537.94;;;7.67;71.19
43621;BME280;29213;50.770;7.298;2023-03-13T03:26:45;99511.78;;;7.55;71.05
43621;BME280;29213;50.770;7.298;2023-03-13T03:29:11;99489.66;;;7.40;71.33
43621;BME280;29213;50.770;7.298;2023-03-13T03:31:36;99549.78;;;7.87;71.02
43621;BME280;29213;50.770;7.298;2023-03-13T03:34:02;99473.91;;;7.46;70.85
43621;BME280;29213;50.770;7.298;2023-03-13T03:36:28;99479.31;;;7.53;70.80
43621;BME280;29213;50.770;7.298;2023-03-13T03:38:53;99536.69;;;7.86;70.94
43621;BME280;29213;50.770;7.298;2023-03-13T03:41:19;99481.00;;;7.54;70.79
43621;BME280;29213;50.770;7.298;2023-03-13T03:43:44;99547.41;;;8.01;70.22
43621;BME280;29213;50.770;7.298;2023-03-13T03:46:11;99532.41;;;7.85;70.62
43621;BME280;29213;50.770;7.298;2023-03-13T03:48:37;99509.91;;;7.72;70.48
43621;BME280;29213;50.770;7.298;2023-03-13T03:51:03;99515.66;;;7.84;69.96
43621;BME280;29213;50.770;7.298;2023-03-13T03:53:28;99517.09;;;7.95;69.73
43621;BME280;29213;50.770;7.298;2023-03-13T03:55:54;99514.28;;;7.97;69.46
43621;BME280;29213;50.770;7.298;2023-03-13T03:58:19;99504.03;;;7.94;69.55
43621;BME280;29213;50.770;7.298;2023-03-13T04:00:46;99490.50;;;7.80;69.42
43621;BME280;29213;50.770;7.298;2023-03-13T04:03:12;99499.50;;;8.02;69.20
43621;BME280;29213;50.770;7.298;2023-03-13T04:05:37;99511.47;;;8.07;69.23
43621;BME280;29213;50.770;7.298;2023-03-13T04:08:03;99477.16;;;7.97;69.17
43621;BME280;29213;50.770;7.298;2023-03-13T04:10:29;99509.13;;;8.35;68.59
43621;BME280;29213;50.770;7.298;2023-03-13T04:12:54;99530.47;;;8.42;68.96
43621;BME280;29213;50.770;7.298;2023-03-13T04:15:20;99502.03;;;8.27;68.72
43621;BME280;29213;50.770;7.298;2023-03-13T04:17:45;99539.06;;;8.44;68.82
43621;BME280;29213;50.770;7.298;2023-03-13T04:20:11;99513.72;;;8.41;69.42
43621;BME280;29213;50.770;7.298;2023-03-13T04:22:39;99489.66;;;8.20;69.16
43621;BME280;29213;50.770;7.298;2023-03-13T04:25:05;99483.84;;;8.24;69.21
43621;BME280;29213;50.770;7.298;2023-03-13T04:27:31;99504.59;;;8.44;69.13
43621;BME280;29213;50.770;7.298;2023-03-13T04:29:57;99487.72;;;8.37;68.86
43621;BME280;29213;50.770;7.298;2023-03-13T04:32:22;99483.66;;;8.49;68.32
43621;BME280;29213;50.770;7.298;2023-03-13T04:34:48;99426.97;;;8.27;67.78
43621;BME280;29213;50.770;7.298;2023-03-13T04:37:13;99416.75;;;8.15;68.14
43621;BME280;29213;50.770;7.298;2023-03-13T04:39:38;99417.75;;;8.14;68.46
43621;BME280;29213;50.770;7.298;2023-03-13T04:42:04;99421.41;;;8.37;68.38
43621;BME280;29213;50.770;7.298;2023-03-13T04:44:29;99448.63;;;8.54;68.55
43621;BME280;29213;50.770;7.298;2023-03-13T04:46:55;99468.91;;;8.70;68.57
43621;BME280;29213;50.770;7.298;2023-03-13T04:49:20;99450.22;;;8.63;68.26
43621;BME280;29213;50.770;7.298;2023-03-13T04:51:46;99476.25;;;8.83;68.35
43621;BME280;29213;50.770;7.298;2023-03-13T04:54:12;99441.66;;;8.53;68.27
43621;BME280;29213;50.770;7.298;2023-03-13T04:56:37;99490.81;;;8.87;68.20
43621;BME280;29213;50.770;7.298;2023-03-13T04:59:03;99473.31;;;8.78;67.89
43621;BME280;29213;50.770;7.298;2023-03-13T05:01:29;99390.91;;;8.33;67.83
43621;BME280;29213;50.770;7.298;2023-03-13T05:03:55;99482.31;;;8.92;67.99
43621;BME280;29213;50.770;7.298;2023-03-13T05:06:21;99460.41;;;8.75;68.21
43621;BME280;29213;50.770;7.298;2023-03-13T05:08:46;99417.06;;;8.59;68.03
43621;BME280;29213;50.770;7.298;2023-03-13T05:11:12;99430.69;;;8.79;68.20
43621;BME280;29213;50.770;7.298;2023-03-13T05:13:37;99411.31;;;8.70;68.02
43621;BME280;29213;50.770;7.298;2023-03-13T05:16:03;99411.22;;;8.64;68.33
43621;BME280;29213;50.770;7.298;2023-03-13T05:18:28;99433.69;;;8.91;68.26
43621;BME280;29213;50.770;7.298;2023-03-13T05:20:54;99389.09;;;8.72;67.96
43621;BME280;29213;50.770;7.298;2023-03-13T05:23:19;99402.44;;;8.78;67.96
43621;BME280;29213;50.770;7.298;2023-03-13T05:25:44;99437.94;;;9.01;68.32
43621;BME280;29213;50.770;7.298;2023-03-13T05:28:10;99381.03;;;8.65;68.37
43621;BME280;29213;50.770;7.298;2023-03-13T05:30:35;99391.03;;;8.78;68.21
43621;BME280;29213;50.770;7.298;2023-03-13T05:33:01;99432.34;;;9.10;68.17
43621;BME280;29213;50.770;7.298;2023-03-13T05:35:26;99440.94;;;9.13;68.15
43621;BME280;29213;50.770;7.298;2023-03-13T05:37:52;99419.34;;;9.01;67.90
43621;BME280;29213;50.770;7.298;2023-03-13T05:40:17;99415.94;;;9.07;67.51
43621;BME280;29213;50.770;7.298;2023-03-13T05:42:44;99437.56;;;9.34;67.63
43621;BME280;29213;50.770;7.298;2023-03-13T05:45:10;99432.78;;;9.29;67.56
43621;BME280;29213;50.770;7.298;2023-03-13T05:47:36;99420.25;;;9.23;67.61
43621;BME280;29213;50.770;7.298;2023-03-13T05:50:04;99375.00;;;9.01;67.63
43621;BME280;29213;50.770;7.298;2023-03-13T05:52:30;99377.03;;;8.99;67.60
43621;BME280;29213;50.770;7.298;2023-03-13T05:54:56;99418.69;;;9.44;67.36
43621;BME280;29213;50.770;7.298;2023-03-13T05:57:21;99392.22;;;9.20;67.47
43621;BME280;29213;50.770;7.298;2023-03-13T05:59:47;99366.22;;;9.01;67.38
43621;BME280;29213;50.770;7.298;2023-03-13T06:02:12;99344.44;;;8.90;67.24
43621;BME280;29213;50.770;7.298;2023-03-13T06:04:38;99374.28;;;9.07;67.76
43621;BME280;29213;50.770;7.298;2023-03-13T06:07:03;99408.78;;;9.38;67.75
43621;BME280;29213;50.770;7.298;2023-03-13T06:09:29;99389.75;;;9.34;67.40
43621;BME280;29213;50.770;7.298;2023-03-13T06:11:54;99400.44;;;9.41;67.50
43621;BME280;29213;50.770;7.298;2023-03-13T06:14:20;99390.47;;;9.28;67.78
43621;BME280;29213;50.770;7.298;2023-03-13T06:16:45;99418.69;;;9.44;68.01
43621;BME280;29213;50.770;7.298;2023-03-13T06:19:11;99393.31;;;9.26;67.93
43621;BME280;29213;50.770;7.298;2023-03-13T06:21:36;99431.25;;;9.50;68.47
43621;BME280;29213;50.770;7.298;2023-03-13T06:24:02;99441.97;;;9.57;68.20
43621;BME280;29213;50.770;7.298;2023-03-13T06:26:27;99427.41;;;9.53;68.30
43621;BME280;29213;50.770;7.298;2023-03-13T06:28:53;99420.63;;;9.50;68.48
43621;BME280;29213;50.770;7.298;2023-03-13T06:31:18;99430.16;;;9.59;68.54
43621;BME280;29213;50.770;7.298;2023-03-13T06:33:44;99368.75;;;9.39;68.50
43621;BME280;29213;50.770;7.298;2023-03-13T06:36:09;99366.53;;;9.43;68.17
43621;BME280;29213;50.770;7.298;2023-03-13T06:38:35;99379.38;;;9.54;68.42
43621;BME280;29213;50.770;7.298;2023-03-13T06:41:00;99386.34;;;9.55;68.43
43621;BME280;29213;50.770;7.298;2023-03-13T06:43:26;99403.63;;;9.66;68.06
43621;BME280;29213;50.770;7.298;2023-03-13T06:45:52;99406.69;;;9.63;67.96
43621;BME280;29213;50.770;7.298;2023-03-13T06:48:17;99420.81;;;9.85;67.89
43621;BME280;29213;50.770;7.298;2023-03-13T06:50:44;99400.44;;;9.71;67.93
43621;BME280;29213;50.770;7.298;2023-03-13T06:53:15;99447.31;;;9.94;67.90
43621;BME280;29213;50.770;7.298;2023-03-13T06:55:41;99417.63;;;9.90;67.54
43621;BME280;29213;50.770;7.298;2023-03-13T06:58:07;99437.13;;;9.97;67.48
43621;BME280;29213;50.770;7.298;2023-03-13T07:00:32;99419.56;;;9.81;67.32
43621;BME280;29213;50.770;7.298;2023-03-13T07:02:58;99417.66;;;9.75;67.30
43621;BME280;29213;50.770;7.298;2023-03-13T07:05:24;99449.84;;;10.02;67.19
43621;BME280;29213;50.770;7.298;2023-03-13T07:07:49;99444.53;;;10.02;67.10
43621;BME280;29213;50.770;7.298;2023-03-13T07:10:15;99465.13;;;10.15;64.85
43621;BME280;29213;50.770;7.298;2023-03-13T07:12:40;99409.81;;;9.88;66.37
43621;BME280;29213;50.770;7.298;2023-03-13T07:15:06;99436.00;;;10.07;66.69
43621;BME280;29213;50.770;7.298;2023-03-13T07:17:32;99476.09;;;10.27;66.52
43621;BME280;29213;50.770;7.298;2023-03-13T07:19:57;99460.38;;;10.10;66.45
43621;BME280;29213;50.770;7.298;2023-03-13T07:22:22;99428.13;;;9.98;66.55
43621;BME280;29213;50.770;7.298;2023-03-13T07:24:48;99437.91;;;10.13;66.36
43621;BME280;29213;50.770;7.298;2023-03-13T07:27:13;99454.56;;;10.22;65.93
43621;BME280;29213;50.770;7.298;2023-03-13T07:29:41;99388.84;;;9.79;65.69
43621;BME280;29213;50.770;7.298;2023-03-13T07:32:06;99473.19;;;10.22;66.54
43621;BME280;29213;50.770;7.298;2023-03-13T07:34:32;99440.41;;;9.99;66.22
43621;BME280;29213;50.770;7.298;2023-03-13T07:36:57;99484.72;;;10.29;66.10
43621;BME280;29213;50.770;7.298;2023-03-13T07:39:23;99452.72;;;10.22;65.63
43621;BME280;29213;50.770;7.298;2023-03-13T07:41:48;99440.16;;;10.16;65.08
43621;BME280;29213;50.770;7.298;2023-03-13T07:44:13;99434.91;;;10.23;64.61
43621;BME280;29213;50.770;7.298;2023-03-13T07:46:39;99465.03;;;10.45;64.09
43621;BME280;29213;50.770;7.298;2023-03-13T07:49:04;99450.44;;;10.41;64.09
43621;BME280;29213;50.770;7.298;2023-03-13T07:51:29;99443.84;;;10.37;63.60
43621;BME280;29213;50.770;7.298;2023-03-13T07:53:55;99387.94;;;10.08;62.84
43621;BME280;29213;50.770;7.298;2023-03-13T07:56:21;99435.75;;;10.45;62.72
43621;BME280;29213;50.770;7.298;2023-03-13T07:58:48;99456.63;;;10.70;62.54
43621;BME280;29213;50.770;7.298;2023-03-13T08:01:22;99449.75;;;10.76;62.44
43621;BME280;29213;50.770;7.298;2023-03-13T08:03:48;99424.25;;;10.66;61.57
43621;BME280;29213;50.770;7.298;2023-03-13T08:06:19;99375.09;;;10.40;61.80
43621;BME280;29213;50.770;7.298;2023-03-13T08:08:46;99396.22;;;10.70;61.96
43621;BME280;29213;50.770;7.298;2023-03-13T08:11:14;99405.53;;;10.81;61.16
43621;BME280;29213;50.770;7.298;2023-03-13T08:13:40;99392.41;;;10.80;61.38
43621;BME280;29213;50.770;7.298;2023-03-13T08:16:11;99401.28;;;10.94;60.90
43621;BME280;29213;50.770;7.298;2023-03-13T08:18:39;99410.75;;;10.96;60.95
43621;BME280;29213;50.770;7.298;2023-03-13T08:21:22;99395.19;;;11.00;59.98
43621;BME280;29213;50.770;7.298;2023-03-13T08:23:51;99424.63;;;11.20;59.62
43621;BME280;29213;50.770;7.298;2023-03-13T08:26:20;99385.72;;;10.91;59.75
43621;BME280;29213;50.770;7.298;2023-03-13T08:28:47;99427.28;;;11.20;59.64
43621;BME280;29213;50.770;7.298;2023-03-13T08:31:21;99381.19;;;10.85;59.78
43621;BME280;29213;50.770;7.298;2023-03-13T08:33:47;99390.22;;;10.90;59.28
43621;BME280;29213;50.770;7.298;2023-03-13T08:38:43;99432.63;;;11.27;59.97
43621;BME280;29213;50.770;7.298;2023-03-13T08:41:15;99424.19;;;11.17;59.52
43621;BME280;29213;50.770;7.298;2023-03-13T08:43:41;99374.41;;;10.89;58.85
43621;BME280;29213;50.770;7.298;2023-03-13T08:46:07;99393.59;;;11.06;59.00
43621;BME280;29213;50.770;7.298;2023-03-13T08:48:32;99381.28;;;11.05;58.66
43621;BME280;29213;50.770;7.298;2023-03-13T08:51:03;99368.72;;;10.92;58.81
43621;BME280;29213;50.770;7.298;2023-03-13T08:53:29;99396.63;;;11.03;59.31
43621;BME280;29213;50.770;7.298;2023-03-13T08:55:56;99331.00;;;10.60;58.99
43621;BME280;29213;50.770;7.298;2023-03-13T08:58:21;99392.13;;;11.03;59.00
43621;BME280;29213;50.770;7.298;2023-03-13T09:00:47;99325.72;;;10.66;59.03
43621;BME280;29213;50.770;7.298;2023-03-13T09:03:12;99382.50;;;11.02;59.53
43621;BME280;29213;50.770;7.298;2023-03-13T09:05:38;99348.97;;;10.79;59.10
43621;BME280;29213;50.770;7.298;2023-03-13T09:08:04;99417.28;;;11.29;59.06
43621;BME280;29213;50.770;7.298;2023-03-13T09:10:33;99393.50;;;11.28;59.22
43621;BME280;29213;50.770;7.298;2023-03-13T09:12:58;99368.13;;;10.96;59.44
43621;BME280;29213;50.770;7.298;2023-03-13T09:15:24;99380.72;;;11.16;59.46
43621;BME280;29213;50.770;7.298;2023-03-13T09:17:50;99397.19;;;11.33;60.03
43621;BME280;29213;50.770;7.298;2023-03-13T09:20:15;99373.53;;;11.17;59.19
43621;BME280;29213;50.770;7.298;2023-03-13T09:22:43;99365.72;;;11.08;59.14
43621;BME280;29213;50.770;7.298;2023-03-13T09:25:09;99357.56;;;11.10;59.75
43621;BME280;29213;50.770;7.298;2023-03-13T09:27:34;99368.63;;;11.14;60.11
43621;BME280;29213;50.770;7.298;2023-03-13T09:29:59;99372.97;;;11.28;60.16
43621;BME280;29213;50.770;7.298;2023-03-13T09:32:25;99396.91;;;11.57;59.25
43621;BME280;29213;50.770;7.298;2023-03-13T09:34:50;99354.78;;;11.32;59.51
43621;BME280;29213;50.770;7.298;2023-03-13T09:37:15;99374.88;;;11.41;59.90
43621;BME280;29213;50.770;7.298;2023-03-13T09:39:41;99321.47;;;11.07;59.91
43621;BME280;29213;50.770;7.298;2023-03-13T09:42:34;99395.25;;;11.56;60.58
43621;BME280;29213;50.770;7.298;2023-03-13T09:45:07;99323.09;;;11.08;60.35
43621;BME280;29213;50.770;7.298;2023-03-13T09:47:43;99401.16;;;11.44;60.78
43621;BME280;29213;50.770;7.298;2023-03-13T09:50:30;99363.19;;;11.35;60.78
43621;BME280;29213;50.770;7.298;2023-03-13T09:53:04;99399.06;;;11.40;61.53
43621;BME280;29213;50.770;7.298;2023-03-13T09:55:33;99390.28;;;11.39;62.01
43621;BME280;29213;50.770;7.298;2023-03-13T09:58:12;99313.56;;;10.86;62.41
43621;BME280;29213;50.770;7.298;2023-03-13T10:00:42;99360.63;;;11.14;62.72
43621;BME280;29213;50.770;7.298;2023-03-13T10:05:38;99346.09;;;11.16;63.18
43621;BME280;29213;50.770;7.298;2023-03-13T10:08:18;99378.13;;;11.30;63.14
43621;BME280;29213;50.770;7.298;2023-03-13T10:10:54;99373.16;;;11.20;63.44
43621;BME280;29213;50.770;7.298;2023-03-13T10:13:27;99376.44;;;11.22;63.83
43621;BME280;29213;50.770;7.298;2023-03-13T10:15:59;99376.84;;;11.19;63.96
43621;BME280;29213;50.770;7.298;2023-03-13T10:18:25;99357.97;;;11.14;64.04
43621;BME280;29213;50.770;7.298;2023-03-13T10:20:57;99362.13;;;11.23;63.85
43621;BME280;29213;50.770;7.298;2023-03-13T10:23:39;99371.00;;;11.44;63.80
43621;BME280;29213;50.770;7.298;2023-03-13T10:26:14;99338.97;;;11.30;63.40
43621;BME280;29213;50.770;7.298;2023-03-13T10:28:41;99326.19;;;11.12;63.82
43621;BME280;29213;50.770;7.298;2023-03-13T10:31:13;99320.81;;;10.99;64.11
43621;BME280;29213;50.770;7.298;2023-03-13T10:33:41;99339.53;;;11.19;63.97
43621;BME280;29213;50.770;7.298;2023-03-13T10:36:09;99268.53;;;10.91;63.78
43621;BME280;29213;50.770;7.298;2023-03-13T10:38:51;99318.47;;;11.24;63.62
43621;BME280;29213;50.770;7.298;2023-03-13T10:41:28;99337.19;;;11.44;63.61
43621;BME280;29213;50.770;7.298;2023-03-13T10:44:01;99343.53;;;11.50;63.97
43621;BME280;29213;50.770;7.298;2023-03-13T10:46:30;99341.28;;;11.54;64.15
43621;BME280;29213;50.770;7.298;2023-03-13T10:48:59;99281.53;;;11.21;63.82
43621;BME280;29213;50.770;7.298;2023-03-13T10:51:33;99294.25;;;11.26;63.96
43621;BME280;29213;50.770;7.298;2023-03-13T10:53:59;99247.44;;;11.03;64.22
43621;BME280;29213;50.770;7.298;2023-03-13T10:56:28;99316.25;;;11.48;63.95
43621;BME280;29213;50.770;7.298;2023-03-13T10:58:54;99284.22;;;11.28;63.82
43621;BME280;29213;50.770;7.298;2023-03-13T11:01:28;99324.69;;;11.58;63.74
43621;BME280;29213;50.770;7.298;2023-03-13T11:03:57;99279.13;;;11.40;63.55
43621;BME280;29213;50.770;7.298;2023-03-13T11:06:27;99308.09;;;11.70;63.55
43621;BME280;29213;50.770;7.298;2023-03-13T11:09:14;99260.09;;;11.49;63.47
43621;BME280;29213;50.770;7.298;2023-03-13T11:11:46;99307.50;;;11.81;63.11
43621;BME280;29213;50.770;7.298;2023-03-13T11:14:18;99244.88;;;11.50;63.25
43621;BME280;29213;50.770;7.298;2023-03-13T11:17:04;99292.75;;;11.85;63.37
43621;BME280;29213;50.770;7.298;2023-03-13T11:19:41;99257.03;;;11.66;63.48
43621;BME280;29213;50.770;7.298;2023-03-13T11:22:32;99290.31;;;12.04;63.76
43621;BME280;29213;50.770;7.298;2023-03-13T11:25:03;99284.16;;;12.10;64.67
43621;BME280;29213;50.770;7.298;2023-03-13T11:30:48;99266.28;;;12.04;64.80
43621;BME280;29213;50.770;7.298;2023-03-13T11:50:46;99212.88;;;12.31;63.75
43621;BME280;29213;50.770;7.298;2023-03-13T11:56:04;99168.34;;;12.18;62.27
43621;BME280;29213;50.770;7.298;2023-03-13T11:58:56;99187.56;;;12.54;60.71
43621;BME280;29213;50.770;7.298;2023-03-13T12:01:33;99194.13;;;12.58;60.76
43621;BME280;29213;50.770;7.298;2023-03-13T12:04:13;99181.56;;;12.59;60.74
43621;BME280;29213;50.770;7.298;2023-03-13T12:06:49;99177.63;;;12.68;60.43
43621;BME280;29213;50.770;7.298;2023-03-13T12:11:58;99182.78;;;12.69;58.97
43621;BME280;29213;50.770;7.298;2023-03-13T12:14:51;99174.19;;;12.61;59.32
43621;BME280;29213;50.770;7.298;2023-03-13T12:20:19;99167.81;;;12.55;57.95
43621;BME280;29213;50.770;7.298;2023-03-13T12:25:36;99175.91;;;12.87;56.85
43621;BME280;29213;50.770;7.298;2023-03-13T12:28:18;99171.16;;;12.89;56.84
43621;BME280;29213;50.770;7.298;2023-03-13T12:34:21;99176.53;;;12.82;56.79
43621;BME280;29213;50.770;7.298;2023-03-13T12:43:09;99083.31;;;12.35;57.20
43621;BME280;29213;50.770;7.298;2023-03-13T12:45:38;99139.00;;;12.70;56.78
43621;BME280;29213;50.770;7.298;2023-03-13T12:48:30;99150.25;;;12.79;57.46
43621;BME280;29213;50.770;7.298;2023-03-13T12:57:04;99129.84;;;12.85;57.59
43621;BME280;29213;50.770;7.298;2023-03-13T12:59:37;99118.09;;;12.93;57.16
43621;BME280;29213;50.770;7.298;2023-03-13T13:02:13;99102.81;;;12.75;56.90
43621;BME280;29213;50.770;7.298;2023-03-13T13:04:45;99085.72;;;12.43;56.98
43621;BME280;29213;50.770;7.298;2023-03-13T13:07:24;99072.34;;;12.50;57.51
43621;BME280;29213;50.770;7.298;2023-03-13T13:12:34;99096.00;;;12.79;57.34
43621;BME280;29213;50.770;7.298;2023-03-13T13:15:03;99117.13;;;12.87;57.72
43621;BME280;29213;50.770;7.298;2023-03-13T13:17:44;99101.94;;;12.81;57.62
43621;BME280;29213;50.770;7.298;2023-03-13T13:20:38;99092.91;;;12.82;58.17
43621;BME280;29213;50.770;7.298;2023-03-13T13:23:45;99086.66;;;12.95;57.52
43621;BME280;29213;50.770;7.298;2023-03-13T13:29:00;99056.44;;;12.62;57.96
43621;BME280;29213;50.770;7.298;2023-03-13T13:31:54;99046.75;;;12.68;57.97
43621;BME280;29213;50.770;7.298;2023-03-13T13:36:59;98994.06;;;12.82;57.75
43621;BME280;29213;50.770;7.298;2023-03-13T13:41:56;99008.38;;;14.44;54.20
43621;BME280;29213;50.770;7.298;2023-03-13T13:44:25;98981.69;;;15.40;52.27
43621;BME280;29213;50.770;7.298;2023-03-13T13:46:51;99017.41;;;15.81;51.93
43621;BME280;29213;50.770;7.298;2023-03-13T13:49:19;98975.03;;;15.42;51.30
43621;BME280;29213;50.770;7.298;2023-03-13T13:57:07;98968.94;;;14.63;53.04
43621;BME280;29213;50.770;7.298;2023-03-13T13:59:44;98992.72;;;14.83;53.73
43621;BME280;29213;50.770;7.298;2023-03-13T14:02:15;98994.50;;;14.47;52.87
43621;BME280;29213;50.770;7.298;2023-03-13T14:04:42;98990.50;;;14.26;53.69
43621;BME280;29213;50.770;7.298;2023-03-13T14:07:44;98994.94;;;14.32;53.96
43621;BME280;29213;50.770;7.298;2023-03-13T14:12:46;98985.19;;;14.07;54.43
43621;BME280;29213;50.770;7.298;2023-03-13T14:17:46;98980.44;;;13.90;54.38
43621;BME280;29213;50.770;7.298;2023-03-13T14:20:23;98954.88;;;13.95;54.56
43621;BME280;29213;50.770;7.298;2023-03-13T14:22:49;98954.63;;;13.96;55.08
43621;BME280;29213;50.770;7.298;2023-03-13T14:25:16;98958.19;;;13.90;55.23
43621;BME280;29213;50.770;7.298;2023-03-13T14:27:45;98933.25;;;13.77;55.32
43621;BME280;29213;50.770;7.298;2023-03-13T14:30:14;98945.88;;;13.89;55.39
43621;BME280;29213;50.770;7.298;2023-03-13T14:32:40;98940.56;;;14.01;55.07